This is the latest recevied weather packets stored in our database for station/object F4GMT-11. If no packets are shown the sender has not sent any weather packets the latest 10 day(s).
| Time | Temp. | Humidity | Pressure | Rain* | Wind** | Luminosity | Snow |
|---|---|---|---|---|---|---|---|
| 1777673820 | 22.78° C | 52% | 1017.7 hPa | - | - | - | - |
| 1777671420 | 23.33° C | 52% | 1017.7 hPa | - | - | - | - |
| 1777670220 | 23.33° C | 51% | 1017.6 hPa | - | - | - | - |
| 1777669020 | 23.89° C | 51% | 1017.7 hPa | - | - | - | - |
| 1777667820 | 23.89° C | 51% | 1017.6 hPa | - | - | - | - |
| 1777666620 | 24.44° C | 51% | 1017.7 hPa | - | - | - | - |
| 1777664220 | 25° C | 50% | 1017.6 hPa | - | - | - | - |
| 1777663020 | 25° C | 49% | 1017.5 hPa | - | - | - | - |
| 1777661820 | 25.56° C | 49% | 1017.5 hPa | - | - | - | - |
| 1777659420 | 25.56° C | 49% | 1017.4 hPa | - | - | - | - |
| 1777649819 | 27.22° C | 48% | 1017.7 hPa | - | - | - | - |
| 1777645019 | 26.11° C | 50% | 1018.3 hPa | - | - | - | - |
| 1777642619 | 25.56° C | 52% | 1018.5 hPa | - | - | - | - |
| 1777640219 | 25° C | 54% | 1018.6 hPa | - | - | - | - |
| 1777631819 | 23.33° C | 59% | 1019.7 hPa | - | - | - | - |
| 1777625819 | 20° C | 63% | 1020.3 hPa | - | - | - | - |
| 1777624619 | 19.44° C | 63% | 1020.1 hPa | - | - | - | - |
| 1777619818 | 17.22° C | 59% | 1020.2 hPa | - | - | - | - |
| 1777616218 | 17.22° C | 58% | 1019.9 hPa | - | - | - | - |
| 1777613818 | 16.67° C | 58% | 1019.9 hPa | - | - | - | - |
| 1777592216 | 19.44° C | 56% | 1019.4 hPa | - | - | - | - |
| 1777591016 | 19.44° C | 56% | 1019.4 hPa | - | - | - | - |
| 1777589816 | 20° C | 55% | 1019.4 hPa | - | - | - | - |
| 1777588617 | 20° C | 55% | 1019.3 hPa | - | - | - | - |
| 1777587416 | 20° C | 55% | 1019.4 hPa | - | - | - | - |
* Rain since midnight (hover to see other rain measurements)
** Current wind speed in m/s (hover to see current wind gust speed)